sensor_id;sensor_type;location;lat;lon;timestamp;P1;durP1;ratioP1;P2;durP2;ratioP2
54665;SDS011;40566;50.006;36.180;2022-09-17T00:01:59;21.52;;;13.10;;
54665;SDS011;40566;50.006;36.180;2022-09-17T00:07:00;19.52;;;12.68;;
54665;SDS011;40566;50.006;36.180;2022-09-17T00:12:01;20.10;;;12.65;;
54665;SDS011;40566;50.006;36.180;2022-09-17T00:17:01;21.95;;;12.25;;
54665;SDS011;40566;50.006;36.180;2022-09-17T00:22:02;19.67;;;12.20;;
54665;SDS011;40566;50.006;36.180;2022-09-17T00:27:02;19.50;;;12.95;;
54665;SDS011;40566;50.006;36.180;2022-09-17T00:32:03;20.05;;;12.07;;
54665;SDS011;40566;50.006;36.180;2022-09-17T00:37:04;19.00;;;12.20;;
54665;SDS011;40566;50.006;36.180;2022-09-17T00:42:05;20.10;;;12.57;;
54665;SDS011;40566;50.006;36.180;2022-09-17T00:47:14;20.30;;;12.63;;
54665;SDS011;40566;50.006;36.180;2022-09-17T00:52:42;19.77;;;13.10;;
54665;SDS011;40566;50.006;36.180;2022-09-17T00:57:46;22.25;;;13.80;;
54665;SDS011;40566;50.006;36.180;2022-09-17T01:02:50;21.58;;;12.43;;
54665;SDS011;40566;50.006;36.180;2022-09-17T01:29:38;22.17;;;12.05;;
54665;SDS011;40566;50.006;36.180;2022-09-17T01:45:28;18.30;;;12.13;;
54665;SDS011;40566;50.006;36.180;2022-09-17T01:50:52;18.42;;;11.77;;
54665;SDS011;40566;50.006;36.180;2022-09-17T01:55:57;17.17;;;11.45;;
54665;SDS011;40566;50.006;36.180;2022-09-17T02:01:01;20.33;;;11.38;;
54665;SDS011;40566;50.006;36.180;2022-09-17T02:06:10;16.88;;;10.82;;
54665;SDS011;40566;50.006;36.180;2022-09-17T02:11:13;17.90;;;11.13;;
54665;SDS011;40566;50.006;36.180;2022-09-17T02:26:47;16.33;;;9.60;;
54665;SDS011;40566;50.006;36.180;2022-09-17T02:31:53;19.75;;;10.00;;
54665;SDS011;40566;50.006;36.180;2022-09-17T02:36:55;16.02;;;9.55;;
54665;SDS011;40566;50.006;36.180;2022-09-17T02:47:18;12.93;;;8.75;;
54665;SDS011;40566;50.006;36.180;2022-09-17T02:57:33;16.33;;;9.40;;
54665;SDS011;40566;50.006;36.180;2022-09-17T03:02:50;14.95;;;9.13;;
54665;SDS011;40566;50.006;36.180;2022-09-17T03:07:58;15.48;;;9.57;;
54665;SDS011;40566;50.006;36.180;2022-09-17T03:12:59;16.25;;;9.57;;
54665;SDS011;40566;50.006;36.180;2022-09-17T03:18:00;14.60;;;9.50;;
54665;SDS011;40566;50.006;36.180;2022-09-17T03:23:01;16.27;;;10.40;;
54665;SDS011;40566;50.006;36.180;2022-09-17T03:28:01;18.83;;;10.98;;
54665;SDS011;40566;50.006;36.180;2022-09-17T03:33:02;14.73;;;9.82;;
54665;SDS011;40566;50.006;36.180;2022-09-17T03:38:03;16.67;;;10.55;;
54665;SDS011;40566;50.006;36.180;2022-09-17T03:43:03;20.17;;;11.65;;
54665;SDS011;40566;50.006;36.180;2022-09-17T03:48:05;17.95;;;10.88;;
54665;SDS011;40566;50.006;36.180;2022-09-17T03:53:05;15.73;;;9.80;;
54665;SDS011;40566;50.006;36.180;2022-09-17T03:58:06;13.88;;;9.18;;
54665;SDS011;40566;50.006;36.180;2022-09-17T04:03:07;19.25;;;11.00;;
54665;SDS011;40566;50.006;36.180;2022-09-17T04:08:07;18.02;;;11.90;;
54665;SDS011;40566;50.006;36.180;2022-09-17T04:13:08;18.25;;;10.73;;
54665;SDS011;40566;50.006;36.180;2022-09-17T04:18:09;17.60;;;11.45;;
54665;SDS011;40566;50.006;36.180;2022-09-17T04:23:10;21.00;;;13.00;;
54665;SDS011;40566;50.006;36.180;2022-09-17T04:28:11;23.13;;;13.20;;
54665;SDS011;40566;50.006;36.180;2022-09-17T04:33:12;20.35;;;13.30;;
54665;SDS011;40566;50.006;36.180;2022-09-17T04:38:13;21.63;;;13.93;;
54665;SDS011;40566;50.006;36.180;2022-09-17T04:43:17;22.30;;;14.35;;
54665;SDS011;40566;50.006;36.180;2022-09-17T04:48:18;22.52;;;14.50;;
54665;SDS011;40566;50.006;36.180;2022-09-17T04:53:18;22.75;;;14.50;;
54665;SDS011;40566;50.006;36.180;2022-09-17T04:58:19;24.83;;;13.38;;
54665;SDS011;40566;50.006;36.180;2022-09-17T05:03:19;21.88;;;13.73;;
54665;SDS011;40566;50.006;36.180;2022-09-17T05:08:20;18.58;;;10.70;;
54665;SDS011;40566;50.006;36.180;2022-09-17T05:13:22;13.55;;;8.43;;
54665;SDS011;40566;50.006;36.180;2022-09-17T05:18:23;14.05;;;7.55;;
54665;SDS011;40566;50.006;36.180;2022-09-17T05:23:25;16.00;;;9.02;;
54665;SDS011;40566;50.006;36.180;2022-09-17T05:28:26;13.85;;;7.93;;
54665;SDS011;40566;50.006;36.180;2022-09-17T05:33:27;11.80;;;7.10;;
54665;SDS011;40566;50.006;36.180;2022-09-17T05:38:28;12.65;;;7.45;;
54665;SDS011;40566;50.006;36.180;2022-09-17T05:43:29;12.18;;;7.68;;
54665;SDS011;40566;50.006;36.180;2022-09-17T05:48:29;12.10;;;7.40;;
54665;SDS011;40566;50.006;36.180;2022-09-17T05:53:30;11.98;;;7.20;;
54665;SDS011;40566;50.006;36.180;2022-09-17T05:58:31;11.13;;;6.00;;
54665;SDS011;40566;50.006;36.180;2022-09-17T06:03:33;12.77;;;6.40;;
54665;SDS011;40566;50.006;36.180;2022-09-17T06:08:34;7.60;;;3.80;;
54665;SDS011;40566;50.006;36.180;2022-09-17T06:13:35;11.40;;;5.38;;
54665;SDS011;40566;50.006;36.180;2022-09-17T06:18:36;10.75;;;5.40;;
54665;SDS011;40566;50.006;36.180;2022-09-17T06:23:37;11.27;;;4.88;;
54665;SDS011;40566;50.006;36.180;2022-09-17T06:28:37;12.45;;;5.60;;
54665;SDS011;40566;50.006;36.180;2022-09-17T06:33:38;12.05;;;5.40;;
54665;SDS011;40566;50.006;36.180;2022-09-17T06:38:39;10.13;;;5.70;;
54665;SDS011;40566;50.006;36.180;2022-09-17T06:43:40;10.77;;;6.30;;
54665;SDS011;40566;50.006;36.180;2022-09-17T06:48:41;12.48;;;6.72;;
54665;SDS011;40566;50.006;36.180;2022-09-17T06:53:41;9.65;;;4.97;;
54665;SDS011;40566;50.006;36.180;2022-09-17T06:58:42;10.40;;;4.35;;
54665;SDS011;40566;50.006;36.180;2022-09-17T07:03:43;7.32;;;3.40;;
54665;SDS011;40566;50.006;36.180;2022-09-17T07:08:44;7.57;;;3.63;;
54665;SDS011;40566;50.006;36.180;2022-09-17T07:13:46;7.68;;;4.18;;
54665;SDS011;40566;50.006;36.180;2022-09-17T07:18:46;9.05;;;4.15;;
54665;SDS011;40566;50.006;36.180;2022-09-17T07:23:47;7.57;;;3.58;;
54665;SDS011;40566;50.006;36.180;2022-09-17T07:28:50;8.23;;;3.40;;
54665;SDS011;40566;50.006;36.180;2022-09-17T07:33:52;7.13;;;3.58;;
54665;SDS011;40566;50.006;36.180;2022-09-17T07:38:53;31.95;;;14.43;;
54665;SDS011;40566;50.006;36.180;2022-09-17T07:43:54;9.27;;;4.43;;
54665;SDS011;40566;50.006;36.180;2022-09-17T07:48:54;7.68;;;3.92;;
54665;SDS011;40566;50.006;36.180;2022-09-17T07:53:56;21.02;;;12.32;;
54665;SDS011;40566;50.006;36.180;2022-09-17T07:58:58;9.68;;;4.30;;
54665;SDS011;40566;50.006;36.180;2022-09-17T08:03:59;9.02;;;4.57;;
54665;SDS011;40566;50.006;36.180;2022-09-17T08:08:59;16.75;;;8.23;;
54665;SDS011;40566;50.006;36.180;2022-09-17T08:14:00;9.13;;;3.33;;
54665;SDS011;40566;50.006;36.180;2022-09-17T08:19:00;8.75;;;4.18;;
54665;SDS011;40566;50.006;36.180;2022-09-17T08:24:02;9.35;;;4.00;;
54665;SDS011;40566;50.006;36.180;2022-09-17T08:29:03;5.90;;;2.78;;
54665;SDS011;40566;50.006;36.180;2022-09-17T08:34:07;5.50;;;3.35;;
54665;SDS011;40566;50.006;36.180;2022-09-17T08:39:08;7.45;;;2.88;;
54665;SDS011;40566;50.006;36.180;2022-09-17T08:49:29;7.22;;;2.92;;
54665;SDS011;40566;50.006;36.180;2022-09-17T08:59:41;5.78;;;2.90;;
54665;SDS011;40566;50.006;36.180;2022-09-17T09:15:46;23.85;;;10.35;;
54665;SDS011;40566;50.006;36.180;2022-09-17T09:20:53;11.75;;;6.03;;
54665;SDS011;40566;50.006;36.180;2022-09-17T09:31:22;7.28;;;2.92;;
54665;SDS011;40566;50.006;36.180;2022-09-17T09:36:29;6.13;;;2.60;;
54665;SDS011;40566;50.006;36.180;2022-09-17T09:42:18;5.97;;;2.53;;
54665;SDS011;40566;50.006;36.180;2022-09-17T09:52:57;9.23;;;2.88;;
54665;SDS011;40566;50.006;36.180;2022-09-17T10:03:31;7.45;;;3.13;;
54665;SDS011;40566;50.006;36.180;2022-09-17T10:08:37;6.60;;;2.97;;
54665;SDS011;40566;50.006;36.180;2022-09-17T10:14:43;6.63;;;2.70;;
54665;SDS011;40566;50.006;36.180;2022-09-17T10:19:25;6.80;;;2.22;;
54665;SDS011;40566;50.006;36.180;2022-09-17T10:24:27;7.75;;;2.72;;
54665;SDS011;40566;50.006;36.180;2022-09-17T10:29:31;5.38;;;2.47;;
54665;SDS011;40566;50.006;36.180;2022-09-17T10:34:33;4.53;;;2.50;;
54665;SDS011;40566;50.006;36.180;2022-09-17T10:39:37;6.85;;;2.90;;
54665;SDS011;40566;50.006;36.180;2022-09-17T10:44:57;5.65;;;2.55;;
54665;SDS011;40566;50.006;36.180;2022-09-17T10:50:00;5.35;;;3.08;;
54665;SDS011;40566;50.006;36.180;2022-09-17T11:00:25;5.68;;;2.63;;
54665;SDS011;40566;50.006;36.180;2022-09-17T11:05:39;6.03;;;2.65;;
54665;SDS011;40566;50.006;36.180;2022-09-17T11:11:04;4.68;;;2.85;;
54665;SDS011;40566;50.006;36.180;2022-09-17T11:21:39;8.38;;;2.80;;
54665;SDS011;40566;50.006;36.180;2022-09-17T11:32:02;10.27;;;3.40;;
54665;SDS011;40566;50.006;36.180;2022-09-17T11:37:08;6.05;;;3.03;;
54665;SDS011;40566;50.006;36.180;2022-09-17T11:42:15;6.22;;;3.10;;
54665;SDS011;40566;50.006;36.180;2022-09-17T11:47:30;7.07;;;3.30;;
54665;SDS011;40566;50.006;36.180;2022-09-17T11:57:40;8.63;;;4.00;;
54665;SDS011;40566;50.006;36.180;2022-09-17T12:13:24;6.60;;;3.20;;
54665;SDS011;40566;50.006;36.180;2022-09-17T12:23:56;8.43;;;3.20;;
54665;SDS011;40566;50.006;36.180;2022-09-17T12:29:10;7.88;;;3.13;;
54665;SDS011;40566;50.006;36.180;2022-09-17T12:44:51;7.40;;;3.53;;
54665;SDS011;40566;50.006;36.180;2022-09-17T13:00:54;11.18;;;4.03;;
54665;SDS011;40566;50.006;36.180;2022-09-17T13:16:42;10.32;;;4.43;;
54665;SDS011;40566;50.006;36.180;2022-09-17T13:21:54;11.35;;;4.95;;
54665;SDS011;40566;50.006;36.180;2022-09-17T13:27:01;10.95;;;5.90;;
54665;SDS011;40566;50.006;36.180;2022-09-17T13:32:04;10.35;;;5.90;;
54665;SDS011;40566;50.006;36.180;2022-09-17T13:37:16;11.80;;;5.75;;
54665;SDS011;40566;50.006;36.180;2022-09-17T13:42:20;13.20;;;6.30;;
54665;SDS011;40566;50.006;36.180;2022-09-17T13:47:29;14.75;;;7.93;;
54665;SDS011;40566;50.006;36.180;2022-09-17T13:57:49;12.60;;;5.47;;
54665;SDS011;40566;50.006;36.180;2022-09-17T14:02:50;14.05;;;4.25;;
54665;SDS011;40566;50.006;36.180;2022-09-17T14:07:51;10.82;;;4.35;;
54665;SDS011;40566;50.006;36.180;2022-09-17T14:18:41;9.93;;;4.82;;
54665;SDS011;40566;50.006;36.180;2022-09-17T14:23:44;9.27;;;4.80;;
54665;SDS011;40566;50.006;36.180;2022-09-17T14:28:55;11.10;;;5.82;;
54665;SDS011;40566;50.006;36.180;2022-09-17T14:34:21;11.65;;;6.28;;
54665;SDS011;40566;50.006;36.180;2022-09-17T14:39:26;13.77;;;6.55;;
54665;SDS011;40566;50.006;36.180;2022-09-17T14:44:35;14.07;;;7.00;;
54665;SDS011;40566;50.006;36.180;2022-09-17T14:49:36;16.55;;;7.07;;
54665;SDS011;40566;50.006;36.180;2022-09-17T14:54:39;17.60;;;6.93;;
54665;SDS011;40566;50.006;36.180;2022-09-17T14:59:56;13.73;;;6.53;;
54665;SDS011;40566;50.006;36.180;2022-09-17T15:04:57;13.10;;;6.93;;
54665;SDS011;40566;50.006;36.180;2022-09-17T15:10:12;12.55;;;6.50;;
54665;SDS011;40566;50.006;36.180;2022-09-17T15:15:22;11.48;;;5.22;;
54665;SDS011;40566;50.006;36.180;2022-09-17T15:20:28;11.93;;;6.28;;
54665;SDS011;40566;50.006;36.180;2022-09-17T15:25:31;13.95;;;6.40;;
54665;SDS011;40566;50.006;36.180;2022-09-17T15:30:33;15.38;;;7.53;;
54665;SDS011;40566;50.006;36.180;2022-09-17T15:35:33;12.70;;;6.68;;
54665;SDS011;40566;50.006;36.180;2022-09-17T15:40:38;12.98;;;6.38;;
54665;SDS011;40566;50.006;36.180;2022-09-17T15:45:40;11.18;;;5.82;;
54665;SDS011;40566;50.006;36.180;2022-09-17T15:50:52;11.85;;;6.63;;
54665;SDS011;40566;50.006;36.180;2022-09-17T16:11:23;19.65;;;9.00;;
54665;SDS011;40566;50.006;36.180;2022-09-17T16:16:32;18.88;;;8.77;;
54665;SDS011;40566;50.006;36.180;2022-09-17T16:21:35;13.53;;;7.87;;
54665;SDS011;40566;50.006;36.180;2022-09-17T16:26:35;22.25;;;9.60;;
54665;SDS011;40566;50.006;36.180;2022-09-17T16:31:37;15.27;;;8.30;;
54665;SDS011;40566;50.006;36.180;2022-09-17T16:36:38;16.55;;;9.77;;
54665;SDS011;40566;50.006;36.180;2022-09-17T16:41:39;15.55;;;8.60;;
54665;SDS011;40566;50.006;36.180;2022-09-17T16:46:39;16.73;;;9.48;;
54665;SDS011;40566;50.006;36.180;2022-09-17T16:51:40;18.55;;;10.65;;
54665;SDS011;40566;50.006;36.180;2022-09-17T16:56:41;18.42;;;9.82;;
54665;SDS011;40566;50.006;36.180;2022-09-17T17:01:41;17.35;;;9.98;;
54665;SDS011;40566;50.006;36.180;2022-09-17T17:06:42;16.83;;;9.65;;
54665;SDS011;40566;50.006;36.180;2022-09-17T17:11:43;17.25;;;9.18;;
54665;SDS011;40566;50.006;36.180;2022-09-17T17:16:43;14.52;;;8.23;;
54665;SDS011;40566;50.006;36.180;2022-09-17T17:21:44;14.60;;;8.43;;
54665;SDS011;40566;50.006;36.180;2022-09-17T17:26:46;13.75;;;8.77;;
54665;SDS011;40566;50.006;36.180;2022-09-17T17:31:48;16.45;;;8.82;;
54665;SDS011;40566;50.006;36.180;2022-09-17T17:36:50;16.67;;;9.43;;
54665;SDS011;40566;50.006;36.180;2022-09-17T17:41:50;17.60;;;8.98;;
54665;SDS011;40566;50.006;36.180;2022-09-17T17:46:53;17.20;;;9.10;;
54665;SDS011;40566;50.006;36.180;2022-09-17T17:51:54;15.18;;;9.00;;
54665;SDS011;40566;50.006;36.180;2022-09-17T17:56:54;14.40;;;8.35;;
54665;SDS011;40566;50.006;36.180;2022-09-17T18:01:55;15.13;;;8.52;;
54665;SDS011;40566;50.006;36.180;2022-09-17T18:06:56;13.40;;;7.85;;
54665;SDS011;40566;50.006;36.180;2022-09-17T18:11:56;17.60;;;9.00;;
54665;SDS011;40566;50.006;36.180;2022-09-17T18:16:57;18.73;;;9.60;;
54665;SDS011;40566;50.006;36.180;2022-09-17T18:21:57;18.25;;;9.43;;
54665;SDS011;40566;50.006;36.180;2022-09-17T18:26:59;16.08;;;8.93;;
54665;SDS011;40566;50.006;36.180;2022-09-17T18:32:00;16.60;;;8.65;;
54665;SDS011;40566;50.006;36.180;2022-09-17T18:37:01;15.18;;;8.73;;
54665;SDS011;40566;50.006;36.180;2022-09-17T18:42:02;15.02;;;8.98;;
54665;SDS011;40566;50.006;36.180;2022-09-17T18:47:03;13.25;;;8.32;;
54665;SDS011;40566;50.006;36.180;2022-09-17T18:52:03;16.17;;;8.68;;
54665;SDS011;40566;50.006;36.180;2022-09-17T18:57:04;16.42;;;8.90;;
54665;SDS011;40566;50.006;36.180;2022-09-17T19:02:05;19.65;;;8.60;;
54665;SDS011;40566;50.006;36.180;2022-09-17T19:07:10;12.90;;;8.23;;
54665;SDS011;40566;50.006;36.180;2022-09-17T19:12:11;18.17;;;8.55;;
54665;SDS011;40566;50.006;36.180;2022-09-17T19:17:11;14.68;;;8.85;;
54665;SDS011;40566;50.006;36.180;2022-09-17T19:22:12;12.73;;;7.85;;
54665;SDS011;40566;50.006;36.180;2022-09-17T19:27:13;14.32;;;7.80;;
54665;SDS011;40566;50.006;36.180;2022-09-17T19:32:13;12.20;;;7.80;;
54665;SDS011;40566;50.006;36.180;2022-09-17T19:37:15;15.20;;;8.52;;
54665;SDS011;40566;50.006;36.180;2022-09-17T19:42:18;14.93;;;8.57;;
54665;SDS011;40566;50.006;36.180;2022-09-17T19:47:19;15.30;;;9.45;;
54665;SDS011;40566;50.006;36.180;2022-09-17T19:52:20;17.77;;;10.27;;
54665;SDS011;40566;50.006;36.180;2022-09-17T19:57:20;16.02;;;10.85;;
54665;SDS011;40566;50.006;36.180;2022-09-17T20:02:21;21.17;;;10.07;;
54665;SDS011;40566;50.006;36.180;2022-09-17T20:07:21;16.00;;;9.77;;
54665;SDS011;40566;50.006;36.180;2022-09-17T20:12:22;17.02;;;9.73;;
54665;SDS011;40566;50.006;36.180;2022-09-17T20:17:23;16.30;;;8.98;;
54665;SDS011;40566;50.006;36.180;2022-09-17T20:22:23;15.73;;;9.07;;
54665;SDS011;40566;50.006;36.180;2022-09-17T20:27:24;16.83;;;9.07;;
54665;SDS011;40566;50.006;36.180;2022-09-17T20:32:25;15.57;;;10.00;;
54665;SDS011;40566;50.006;36.180;2022-09-17T20:37:26;15.85;;;9.95;;
54665;SDS011;40566;50.006;36.180;2022-09-17T20:42:28;17.38;;;9.63;;
54665;SDS011;40566;50.006;36.180;2022-09-17T20:47:28;16.90;;;9.55;;
54665;SDS011;40566;50.006;36.180;2022-09-17T20:52:29;17.65;;;9.40;;
54665;SDS011;40566;50.006;36.180;2022-09-17T20:57:30;16.13;;;9.75;;
54665;SDS011;40566;50.006;36.180;2022-09-17T21:02:31;14.75;;;9.52;;
54665;SDS011;40566;50.006;36.180;2022-09-17T21:07:33;17.60;;;10.38;;
54665;SDS011;40566;50.006;36.180;2022-09-17T21:12:33;16.92;;;10.18;;
54665;SDS011;40566;50.006;36.180;2022-09-17T21:17:34;15.10;;;10.07;;
54665;SDS011;40566;50.006;36.180;2022-09-17T21:22:35;15.52;;;9.88;;
54665;SDS011;40566;50.006;36.180;2022-09-17T21:27:36;16.95;;;10.15;;
54665;SDS011;40566;50.006;36.180;2022-09-17T21:32:36;20.67;;;10.68;;
54665;SDS011;40566;50.006;36.180;2022-09-17T21:37:37;18.92;;;10.88;;
54665;SDS011;40566;50.006;36.180;2022-09-17T21:42:37;18.00;;;10.93;;
54665;SDS011;40566;50.006;36.180;2022-09-17T21:47:39;20.35;;;11.00;;
54665;SDS011;40566;50.006;36.180;2022-09-17T21:52:39;18.75;;;11.18;;
54665;SDS011;40566;50.006;36.180;2022-09-17T21:57:40;20.27;;;11.75;;
54665;SDS011;40566;50.006;36.180;2022-09-17T22:02:40;21.92;;;12.00;;
54665;SDS011;40566;50.006;36.180;2022-09-17T22:07:41;20.10;;;11.95;;
54665;SDS011;40566;50.006;36.180;2022-09-17T22:12:41;21.02;;;12.77;;
54665;SDS011;40566;50.006;36.180;2022-09-17T22:17:42;20.27;;;12.00;;
54665;SDS011;40566;50.006;36.180;2022-09-17T22:22:43;20.80;;;12.75;;
54665;SDS011;40566;50.006;36.180;2022-09-17T22:27:47;20.30;;;12.30;;
54665;SDS011;40566;50.006;36.180;2022-09-17T22:32:48;22.88;;;13.07;;
54665;SDS011;40566;50.006;36.180;2022-09-17T22:37:49;22.98;;;12.85;;
54665;SDS011;40566;50.006;36.180;2022-09-17T22:42:49;21.30;;;12.90;;
54665;SDS011;40566;50.006;36.180;2022-09-17T22:47:50;19.83;;;11.80;;
54665;SDS011;40566;50.006;36.180;2022-09-17T22:52:51;19.05;;;11.50;;
54665;SDS011;40566;50.006;36.180;2022-09-17T22:57:51;20.33;;;11.63;;
54665;SDS011;40566;50.006;36.180;2022-09-17T23:02:52;22.10;;;12.30;;
54665;SDS011;40566;50.006;36.180;2022-09-17T23:07:52;19.45;;;12.07;;
54665;SDS011;40566;50.006;36.180;2022-09-17T23:12:53;20.17;;;12.00;;
54665;SDS011;40566;50.006;36.180;2022-09-17T23:17:54;18.30;;;11.48;;
54665;SDS011;40566;50.006;36.180;2022-09-17T23:22:54;22.73;;;12.70;;
54665;SDS011;40566;50.006;36.180;2022-09-17T23:27:55;22.30;;;12.32;;
54665;SDS011;40566;50.006;36.180;2022-09-17T23:32:56;19.42;;;12.00;;
54665;SDS011;40566;50.006;36.180;2022-09-17T23:37:57;20.23;;;12.27;;
54665;SDS011;40566;50.006;36.180;2022-09-17T23:42:58;23.17;;;11.30;;
54665;SDS011;40566;50.006;36.180;2022-09-17T23:47:58;23.67;;;12.40;;
54665;SDS011;40566;50.006;36.180;2022-09-17T23:52:59;22.10;;;12.27;;
54665;SDS011;40566;50.006;36.180;2022-09-17T23:58:00;20.13;;;12.32;;
